TimePST,TemperatureF,Dew PointF,Humidity,Sea Level PressureIn,VisibilityMPH,Wind Direction,Wind SpeedMPH,Gust SpeedMPH,PrecipitationIn,Events,Conditions,WindDirDegrees,DateUTC
12:55 AM,64.0,10.9,13,30.13,10.0,East,16.1,-,N/A,,Clear,80,2013-01-19 08:55:00
1:55 AM,64.0,10.0,12,30.14,10.0,East,17.3,-,N/A,,Clear,80,2013-01-19 09:55:00
2:55 AM,64.0,9.0,12,30.14,10.0,East,18.4,-,N/A,,Clear,80,2013-01-19 10:55:00
3:55 AM,64.0,9.0,12,30.14,10.0,East,17.3,-,N/A,,Clear,80,2013-01-19 11:55:00
4:55 AM,64.0,9.0,12,30.14,10.0,East,18.4,-,N/A,,Clear,80,2013-01-19 12:55:00
5:55 AM,64.9,9.0,11,30.14,10.0,East,18.4,-,N/A,,Clear,80,2013-01-19 13:55:00
6:55 AM,64.0,9.0,12,30.16,10.0,East,16.1,-,N/A,,Clear,80,2013-01-19 14:55:00
7:55 AM,66.9,9.0,10,30.17,10.0,East,16.1,-,N/A,,Clear,80,2013-01-19 15:55:00
8:55 AM,71.1,10.0,9,30.19,10.0,East,20.7,-,N/A,,Clear,80,2013-01-19 16:55:00
9:55 AM,73.9,10.0,9,30.21,10.0,ENE,21.9,28.8,N/A,,Clear,70,2013-01-19 17:55:00
10:55 AM,77.0,9.0,7,30.19,10.0,East,25.3,29.9,N/A,,Clear,80,2013-01-19 18:55:00
11:55 AM,79.0,7.0,6,30.15,10.0,ENE,24.2,-,N/A,,Clear,60,2013-01-19 19:55:00
12:55 PM,80.1,7.0,6,30.13,10.0,ENE,20.7,-,N/A,,Clear,70,2013-01-19 20:55:00
1:55 PM,80.1,5.0,6,30.12,10.0,ENE,20.7,27.6,N/A,,Clear,60,2013-01-19 21:55:00
2:55 PM,80.1,5.0,6,30.11,10.0,NE,18.4,27.6,N/A,,Clear,50,2013-01-19 22:55:00
3:55 PM,79.0,5.0,6,30.11,10.0,NE,19.6,-,N/A,,Clear,50,2013-01-19 23:55:00
4:55 PM,75.0,6.1,7,30.11,10.0,ENE,12.7,-,N/A,,Clear,70,2013-01-20 00:55:00
5:55 PM,57.9,34.0,41,30.13,10.0,Calm,Calm,-,N/A,,Clear,0,2013-01-20 01:55:00
6:55 PM,57.0,34.0,42,30.14,10.0,Calm,Calm,-,N/A,,Clear,0,2013-01-20 02:55:00
7:55 PM,66.0,10.0,11,30.14,10.0,ENE,12.7,-,N/A,,Clear,70,2013-01-20 03:55:00
8:55 PM,64.9,9.0,11,30.15,10.0,ENE,12.7,-,N/A,,Clear,60,2013-01-20 04:55:00
10:55 PM,60.1,10.9,14,30.16,10.0,ENE,11.5,-,N/A,,Clear,60,2013-01-20 06:55:00
11:55 PM,57.0,12.9,18,30.16,10.0,NE,8.1,-,N/A,,Clear,40,2013-01-20 07:55:00